Time;durP1;ratioP1;P1;durP2;ratioP2;P2;SDS_P1;SDS_P2;PMS_P1;PMS_P2;Temp;Humidity;BMP_temperature;BMP_pressure;BME280_temperature;BME280_humidity;BME280_pressure;Samples;Min_cycle;Max_cycle;Signal;HPM_P1;HPM_P2
2022/11/09 00:01:26;;;;;;;79.05;49.60;;;7.80;99.90;;;;;;4975065;28;20412;-66
2022/11/09 00:03:57;;;;;;;81.88;51.63;;;7.80;99.90;;;;;;4966030;28;20039;-73
2022/11/09 00:06:24;;;;;;;105.75;55.83;;;7.70;99.90;;;;;;4955235;28;20039;-66
2022/11/09 00:08:50;;;;;;;115.70;63.20;;;7.80;99.90;;;;;;4974911;28;20038;-66
2022/11/09 00:11:16;;;;;;;77.00;48.72;;;7.70;99.90;;;;;;4959499;28;20575;-77
2022/11/09 00:13:43;;;;;;;66.53;47.45;;;7.70;99.90;;;;;;4969039;28;20417;-70
2022/11/09 00:16:16;;;;;;;61.55;43.22;;;7.70;99.90;;;;;;4974682;28;20115;-69
2022/11/09 00:18:48;;;;;;;67.25;43.67;;;7.60;99.90;;;;;;4970346;28;20109;-74
2022/11/09 00:21:20;;;;;;;103.43;48.50;;;7.60;99.90;;;;;;4971971;28;20038;-76
2022/11/09 00:23:47;;;;;;;60.70;41.47;;;7.40;99.90;;;;;;4973195;28;20110;-68
2022/11/09 00:26:14;;;;;;;59.47;39.17;;;7.30;99.90;;;;;;4982115;28;20034;-66
2022/11/09 00:28:41;;;;;;;55.28;39.40;;;7.20;99.90;;;;;;4969296;28;20046;-67
2022/11/09 00:31:10;;;;;;;59.67;39.78;;;7.20;99.90;;;;;;4982048;28;20031;-68
2022/11/09 00:33:38;;;;;;;62.42;42.88;;;7.30;99.90;;;;;;4986758;28;20035;-69
2022/11/09 00:36:06;;;;;;;61.00;43.92;;;7.30;99.90;;;;;;4958519;28;20497;-67
2022/11/09 00:38:37;;;;;;;63.85;46.30;;;7.30;99.90;;;;;;4971520;28;20042;-70
2022/11/09 00:41:04;;;;;;;63.17;43.90;;;7.30;99.90;;;;;;4966698;28;20393;-68
2022/11/09 00:43:31;;;;;;;49.53;34.78;;;7.30;99.90;;;;;;4959033;28;20042;-76
2022/11/09 00:45:57;;;;;;;55.70;38.35;;;7.30;99.90;;;;;;4971517;28;20038;-70
2022/11/09 00:48:24;;;;;;;47.28;33.92;;;7.20;99.90;;;;;;4972046;28;20049;-66
2022/11/09 00:50:52;;;;;;;50.13;37.97;;;7.20;99.90;;;;;;4983772;28;20043;-68
2022/11/09 00:53:18;;;;;;;54.90;37.15;;;7.20;99.90;;;;;;4954348;28;20575;-66
2022/11/09 00:55:58;;;;;;;49.15;35.63;;;7.30;99.90;;;;;;4964090;28;20493;-68
2022/11/09 00:58:26;;;;;;;57.25;39.95;;;7.30;99.90;;;;;;4976404;28;20041;-67
2022/11/09 01:00:53;;;;;;;87.47;49.33;;;7.20;99.90;;;;;;4957928;28;20035;-70
2022/11/09 01:03:20;;;;;;;73.03;48.20;;;7.20;99.90;;;;;;4973675;28;20030;-68
2022/11/09 01:05:46;;;;;;;76.75;55.08;;;7.20;99.90;;;;;;4962069;28;20029;-67
2022/11/09 01:08:12;;;;;;;71.85;49.05;;;7.00;99.90;;;;;;4968530;28;20043;-67
2022/11/09 01:10:43;;;;;;;72.75;51.67;;;7.10;99.90;;;;;;4968788;28;20031;-67
2022/11/09 01:13:12;;;;;;;88.35;56.33;;;7.10;99.90;;;;;;4953825;28;20050;-67
2022/11/09 01:15:51;;;;;;;80.68;53.35;;;7.00;99.90;;;;;;4968522;28;20456;-67
2022/11/09 01:18:19;;;;;;;125.63;62.70;;;7.10;99.90;;;;;;4966294;28;20034;-66
2022/11/09 01:20:47;;;;;;;96.50;58.20;;;7.00;99.90;;;;;;4972809;28;20035;-67
2022/11/09 01:23:15;;;;;;;83.15;53.13;;;6.80;99.90;;;;;;4981758;28;20042;-66
2022/11/09 01:25:44;;;;;;;110.68;59.35;;;6.90;99.90;;;;;;4959743;28;20070;-67
2022/11/09 01:28:10;;;;;;;124.20;60.78;;;6.70;99.90;;;;;;4953038;28;20051;-72
2022/11/09 01:30:40;;;;;;;83.15;51.88;;;6.70;99.90;;;;;;4972195;28;20038;-69
2022/11/09 01:33:08;;;;;;;92.53;48.10;;;6.60;99.90;;;;;;4965346;28;20126;-69
2022/11/09 01:35:35;;;;;;;117.53;56.42;;;6.60;99.90;;;;;;4959999;28;20027;-68
2022/11/09 01:38:03;;;;;;;124.50;57.38;;;6.60;99.90;;;;;;4966744;28;20039;-74
2022/11/09 01:40:29;;;;;;;165.48;75.43;;;6.60;99.90;;;;;;4957820;28;20113;-69
2022/11/09 01:42:56;;;;;;;94.05;48.95;;;6.60;99.90;;;;;;4965167;28;20134;-66
2022/11/09 01:45:28;;;;;;;103.82;52.17;;;6.60;99.90;;;;;;4957189;28;20110;-67
2022/11/09 01:48:05;;;;;;;148.82;66.03;;;6.60;99.90;;;;;;4939914;29;20043;-68
2022/11/09 01:50:54;;;;;;;107.18;48.05;;;6.70;99.90;;;;;;4959376;28;20043;-66
2022/11/09 01:53:26;;;;;;;75.22;46.78;;;6.70;99.90;;;;;;4958155;28;20101;-67
2022/11/09 01:55:55;;;;;;;90.65;45.97;;;6.70;99.90;;;;;;4968026;28;20038;-69
2022/11/09 01:58:27;;;;;;;103.40;44.90;;;6.80;99.90;;;;;;4960235;28;20023;-66
2022/11/09 02:00:57;;;;;;;105.30;49.43;;;6.80;99.90;;;;;;4964857;28;20090;-67
2022/11/09 02:03:34;;;;;;;90.07;45.35;;;6.90;99.90;;;;;;4959425;28;20035;-69
2022/11/09 02:06:04;;;;;;;79.78;46.75;;;7.00;99.90;;;;;;4963429;28;20099;-68
2022/11/09 02:08:30;;;;;;;86.15;47.50;;;7.00;99.90;;;;;;4957630;28;20046;-73
2022/11/09 02:11:02;;;;;;;73.30;42.15;;;7.00;99.90;;;;;;4976137;28;20063;-67
2022/11/09 02:13:31;;;;;;;86.78;43.78;;;7.00;99.90;;;;;;4989906;28;20065;-67
2022/11/09 02:16:02;;;;;;;82.60;48.97;;;7.00;99.90;;;;;;4983562;28;20090;-67
2022/11/09 02:18:30;;;;;;;93.68;51.72;;;7.10;99.90;;;;;;4947738;28;20031;-66
2022/11/09 02:20:57;;;;;;;79.53;48.33;;;7.20;99.90;;;;;;4980237;28;20050;-67
2022/11/09 02:23:25;;;;;;;82.97;50.92;;;7.20;99.90;;;;;;4973200;28;20026;-66
2022/11/09 02:25:57;;;;;;;75.13;47.10;;;7.30;99.90;;;;;;4956745;28;20094;-68
2022/11/09 02:28:25;;;;;;;99.07;47.58;;;7.30;99.90;;;;;;4946011;28;20049;-67
2022/11/09 02:30:54;;;;;;;102.57;49.70;;;7.30;99.90;;;;;;4954716;28;20027;-70
2022/11/09 02:33:20;;;;;;;102.63;50.30;;;7.40;99.90;;;;;;4944017;28;20094;-75
2022/11/09 02:35:45;;;;;;;97.82;48.70;;;7.30;99.90;;;;;;4984855;28;20038;-67
2022/11/09 02:38:14;;;;;;;119.43;52.30;;;7.30;99.90;;;;;;4971874;28;20042;-68
2022/11/09 02:40:44;;;;;;;99.78;51.47;;;7.20;99.90;;;;;;4949898;28;20097;-69
2022/11/09 02:43:12;;;;;;;80.20;43.75;;;7.30;99.90;;;;;;4960491;28;20042;-66
2022/11/09 02:45:38;;;;;;;90.90;46.97;;;7.30;99.90;;;;;;4965435;28;20385;-69
2022/11/09 02:48:05;;;;;;;145.48;56.35;;;7.40;99.90;;;;;;4965775;28;20042;-67
2022/11/09 02:50:35;;;;;;;142.35;68.63;;;7.40;99.90;;;;;;4959067;28;20547;-68
2022/11/09 02:53:05;;;;;;;152.55;62.22;;;7.20;99.90;;;;;;4955629;28;20035;-68
2022/11/09 02:55:34;;;;;;;;;;;7.10;99.90;;;;;;4948325;29;20066;-68
2022/11/09 02:58:01;;;;;;;77.70;41.85;;;7.10;99.90;;;;;;4957657;28;19945;-67
2022/11/09 03:00:27;;;;;;;95.43;40.10;;;7.10;99.90;;;;;;4959201;28;20053;-68
2022/11/09 03:02:57;;;;;;;65.00;33.03;;;7.10;99.90;;;;;;4977072;28;20046;-67
2022/11/09 03:05:25;;;;;;;60.83;31.83;;;7.00;99.90;;;;;;4963657;28;20555;-67
2022/11/09 03:07:53;;;;;;;61.33;32.03;;;7.00;99.90;;;;;;4997548;28;20090;-68
2022/11/09 03:10:22;;;;;;;59.30;31.38;;;7.10;99.90;;;;;;4978488;28;20043;-69
2022/11/09 03:12:48;;;;;;;100.65;36.15;;;7.10;99.90;;;;;;4947903;28;20122;-68
2022/11/09 03:15:18;;;;;;;66.10;31.83;;;7.10;99.90;;;;;;4969306;28;20043;-66
2022/11/09 03:17:46;;;;;;;65.47;30.98;;;7.20;99.90;;;;;;4960013;28;20031;-66
2022/11/09 03:20:13;;;;;;;82.40;32.33;;;7.20;99.90;;;;;;4970486;28;20516;-68
2022/11/09 03:22:40;;;;;;;52.20;30.20;;;7.10;99.90;;;;;;4932702;29;20082;-69
2022/11/09 03:25:06;;;;;;;83.15;30.90;;;7.20;99.90;;;;;;4936310;29;20063;-69
2022/11/09 03:27:32;;;;;;;62.42;29.73;;;7.20;99.90;;;;;;4950802;28;20039;-68
2022/11/09 03:29:58;;;;;;;50.05;30.80;;;7.10;99.90;;;;;;4950746;28;20180;-69
2022/11/09 03:32:24;;;;;;;49.20;29.80;;;7.20;99.90;;;;;;4944214;29;20118;-67
2022/11/09 03:34:52;;;;;;;53.63;30.13;;;7.20;99.90;;;;;;4958092;28;20134;-68
2022/11/09 03:37:19;;;;;;;68.13;31.27;;;7.30;99.90;;;;;;4950786;28;20040;-67
2022/11/09 03:39:44;;;;;;;75.22;30.73;;;7.30;99.90;;;;;;4935907;29;20035;-67
2022/11/09 03:42:10;;;;;;;53.50;28.95;;;7.30;99.90;;;;;;4942950;29;20086;-66
2022/11/09 03:44:40;;;;;;;61.42;31.13;;;7.20;99.90;;;;;;4943101;29;20040;-67
2022/11/09 03:47:06;;;;;;;55.50;33.10;;;7.30;99.90;;;;;;4935804;29;20043;-66
2022/11/09 03:49:31;;;;;;;76.10;31.88;;;7.30;99.90;;;;;;4945177;29;20043;-67
2022/11/09 03:51:57;;;;;;;70.70;33.40;;;7.30;99.90;;;;;;4940171;29;20040;-68
2022/11/09 03:54:23;;;;;;;80.50;37.05;;;7.30;99.90;;;;;;4935750;29;20031;-69
2022/11/09 03:56:49;;;;;;;71.28;33.00;;;7.20;99.90;;;;;;4948108;29;20065;-68
2022/11/09 03:59:15;;;;;;;64.32;32.47;;;7.30;99.90;;;;;;4936125;29;20038;-66
2022/11/09 04:01:43;;;;;;;68.05;30.75;;;7.30;99.90;;;;;;4949597;28;20035;-69
2022/11/09 04:04:09;;;;;;;60.05;30.92;;;7.30;99.90;;;;;;4937440;29;20034;-71
2022/11/09 04:06:35;;;;;;;62.28;31.10;;;7.40;99.90;;;;;;4937901;29;20023;-69
2022/11/09 04:09:01;;;;;;;60.63;32.67;;;7.40;99.90;;;;;;4954355;29;20047;-67
2022/11/09 04:11:29;;;;;;;48.05;27.67;;;7.30;99.90;;;;;;4940852;29;20061;-70
2022/11/09 04:13:55;;;;;;;46.95;26.08;;;7.30;99.90;;;;;;4947146;29;20130;-69
2022/11/09 04:16:21;;;;;;;60.20;29.25;;;7.20;99.90;;;;;;4948136;29;20087;-68
2022/11/09 04:18:47;;;;;;;53.55;27.60;;;7.20;99.90;;;;;;4952246;29;20042;-72
2022/11/09 04:21:16;;;;;;;45.20;27.15;;;7.10;99.90;;;;;;4946389;29;20405;-70
2022/11/09 04:23:41;;;;;;;48.03;26.98;;;7.10;99.90;;;;;;4950103;29;20028;-69
2022/11/09 04:26:07;;;;;;;56.22;26.17;;;7.10;99.90;;;;;;4934906;29;20035;-68
2022/11/09 04:28:33;;;;;;;40.33;26.73;;;7.00;99.90;;;;;;4950335;29;20062;-69
2022/11/09 04:31:00;;;;;;;48.85;28.17;;;7.00;99.90;;;;;;4940693;29;20387;-67
2022/11/09 04:33:27;;;;;;;42.00;27.08;;;7.00;99.90;;;;;;4945750;29;20044;-69
2022/11/09 04:35:53;;;;;;;52.25;29.95;;;7.00;99.90;;;;;;4934712;29;20498;-72
2022/11/09 04:38:22;;;;;;;93.85;37.35;;;7.00;99.90;;;;;;4934909;29;20099;-68
2022/11/09 04:40:49;;;;;;;74.25;31.02;;;7.00;99.90;;;;;;4948766;29;20043;-68
2022/11/09 04:43:17;;;;;;;42.67;27.80;;;6.90;99.90;;;;;;4938157;29;20035;-69
2022/11/09 04:45:43;;;;;;;75.78;33.83;;;7.00;99.90;;;;;;4947782;29;20102;-67
2022/11/09 04:48:09;;;;;;;50.58;31.92;;;6.80;99.90;;;;;;4958478;28;20035;-68
2022/11/09 04:50:37;;;;;;;59.45;31.38;;;6.90;99.90;;;;;;4963736;28;20110;-68
2022/11/09 04:53:14;;;;;;;86.20;30.58;;;7.00;99.90;;;;;;4964230;28;20026;-67
2022/11/09 04:55:41;;;;;;;61.78;29.33;;;6.90;99.90;;;;;;4956857;29;20039;-67
2022/11/09 04:58:08;;;;;;;48.15;26.52;;;6.80;99.90;;;;;;4957494;28;20034;-67
2022/11/09 05:00:35;;;;;;;76.47;27.25;;;6.90;99.90;;;;;;4967236;28;20043;-74
2022/11/09 05:03:05;;;;;;;58.08;28.50;;;6.90;99.90;;;;;;4966158;29;20031;-71
2022/11/09 05:05:36;;;;;;;61.78;28.73;;;6.90;99.90;;;;;;4956714;29;20042;-69
2022/11/09 05:08:06;;;;;;;63.28;27.13;;;6.90;99.90;;;;;;4937907;28;20043;-68
2022/11/09 05:10:34;;;;;;;57.20;29.77;;;6.90;99.90;;;;;;4960818;28;20036;-71
2022/11/09 05:13:06;;;;;;;47.17;27.58;;;6.80;99.90;;;;;;4979751;28;20053;-70
2022/11/09 05:15:33;;;;;;;57.95;28.17;;;6.80;99.90;;;;;;4982302;28;20535;-70
2022/11/09 05:18:00;;;;;;;100.22;32.67;;;6.90;99.90;;;;;;4977019;28;20046;-77
2022/11/09 05:20:27;;;;;;;65.05;30.92;;;6.80;99.90;;;;;;4972958;28;20127;-75
2022/11/09 05:25:38;;;;;;;63.55;32.75;;;6.80;99.90;;;;;;4970618;28;20035;-69
2022/11/09 05:28:04;;;;;;;69.20;30.08;;;6.90;99.90;;;;;;4971315;28;20042;-68
2022/11/09 05:30:30;;;;;;;84.50;32.35;;;7.00;99.90;;;;;;4967373;28;20057;-74
2022/11/09 05:33:02;;;;;;;111.13;32.45;;;6.90;99.90;;;;;;4970599;28;20497;-69
2022/11/09 05:35:28;;;;;;;220.32;47.28;;;6.70;99.90;;;;;;4969220;28;20452;-71
2022/11/09 05:37:54;;;;;;;73.20;32.60;;;6.50;99.90;;;;;;4971767;28;20110;-74
2022/11/09 05:40:20;;;;;;;94.00;39.88;;;6.60;99.90;;;;;;4953925;28;20113;-71
2022/11/09 05:42:45;;;;;;;130.60;37.78;;;6.70;99.90;;;;;;4970963;28;20374;-72
2022/11/09 05:45:17;;;;;;;165.88;33.80;;;6.60;99.90;;;;;;4970935;28;20074;-75
2022/11/09 05:47:44;;;;;;;163.85;34.80;;;6.50;99.90;;;;;;4971219;28;20039;-70
2022/11/09 05:50:13;;;;;;;192.50;38.75;;;6.50;99.90;;;;;;4969046;28;20055;-72
2022/11/09 05:52:39;;;;;;;231.38;54.72;;;6.50;99.90;;;;;;4967430;28;20019;-69
2022/11/09 05:55:06;;;;;;;166.25;53.30;;;6.40;99.90;;;;;;4963738;28;20082;-69
2022/11/09 05:57:32;;;;;;;149.70;54.10;;;6.40;99.90;;;;;;4969903;28;20031;-68
2022/11/09 05:59:58;;;;;;;98.35;49.53;;;6.40;99.90;;;;;;4977300;28;20054;-70
2022/11/09 06:02:29;;;;;;;121.70;53.03;;;6.40;99.90;;;;;;4973995;28;20042;-69
2022/11/09 06:04:55;;;;;;;204.43;62.65;;;6.60;99.90;;;;;;4983991;28;20031;-69
2022/11/09 06:07:22;;;;;;;223.38;65.25;;;6.50;99.90;;;;;;4973841;28;20030;-69
2022/11/09 06:09:49;;;;;;;203.13;83.15;;;6.50;99.90;;;;;;4977031;28;20437;-69
2022/11/09 06:12:17;;;;;;;178.55;54.38;;;6.50;99.90;;;;;;4959744;28;20046;-68
2022/11/09 06:14:44;;;;;;;137.23;48.67;;;6.50;99.90;;;;;;4979954;28;20039;-69
2022/11/09 06:17:10;;;;;;;217.98;54.95;;;6.60;99.90;;;;;;4974072;28;20031;-69
2022/11/09 06:19:37;;;;;;;113.75;47.50;;;6.30;99.90;;;;;;4958512;28;20039;-68
2022/11/09 06:22:05;;;;;;;89.85;43.55;;;6.50;99.90;;;;;;4974932;28;20039;-69
2022/11/09 06:24:34;;;;;;;113.68;48.28;;;6.70;99.90;;;;;;4985106;28;20041;-70
2022/11/09 06:27:05;;;;;;;140.48;53.25;;;6.90;99.90;;;;;;4988943;28;20027;-70
2022/11/09 06:29:33;;;;;;;197.25;66.50;;;6.80;99.90;;;;;;4989483;28;20078;-71
2022/11/09 06:32:01;;;;;;;256.58;73.30;;;6.80;99.90;;;;;;4957965;28;20023;-71
2022/11/09 06:34:29;;;;;;;221.48;76.13;;;6.60;99.90;;;;;;4982673;28;20039;-71
2022/11/09 06:36:55;;;;;;;151.98;59.60;;;6.70;99.90;;;;;;4977695;28;20155;-70
2022/11/09 06:39:22;;;;;;;140.75;64.28;;;6.90;99.90;;;;;;4970820;28;20062;-70
2022/11/09 06:41:48;;;;;;;172.52;76.70;;;7.00;99.90;;;;;;4967320;28;20098;-70
2022/11/09 06:44:14;;;;;;;184.73;73.15;;;7.10;99.90;;;;;;4971500;28;20038;-68
2022/11/09 06:46:41;;;;;;;171.88;48.28;;;7.10;99.90;;;;;;4975340;28;20031;-69
2022/11/09 06:49:10;;;;;;;96.93;40.22;;;7.00;99.90;;;;;;4984110;28;20050;-72
2022/11/09 06:51:36;;;;;;;78.07;33.30;;;7.20;99.90;;;;;;4969315;28;20027;-71
2022/11/09 06:54:02;;;;;;;76.10;36.00;;;7.40;99.90;;;;;;4970955;28;20035;-70
2022/11/09 06:56:33;;;;;;;82.40;35.15;;;7.40;99.90;;;;;;4975420;28;20042;-71
2022/11/09 06:59:03;;;;;;;51.90;27.90;;;7.40;99.90;;;;;;4984221;28;20058;-71
2022/11/09 07:01:32;;;;;;;63.35;31.42;;;7.60;99.90;;;;;;4985061;28;20101;-71
2022/11/09 07:04:00;;;;;;;63.92;32.10;;;7.60;99.90;;;;;;4979128;28;20109;-74
2022/11/09 07:06:26;;;;;;;60.92;29.58;;;7.70;99.90;;;;;;4980021;28;20031;-69
2022/11/09 07:08:58;;;;;;;48.67;23.27;;;7.60;99.90;;;;;;4970694;28;20057;-76
2022/11/09 07:11:28;;;;;;;89.20;29.65;;;7.70;99.90;;;;;;4978993;28;20029;-72
2022/11/09 07:14:00;;;;;;;53.05;26.08;;;7.50;99.90;;;;;;4984662;28;20102;-72
2022/11/09 07:16:29;;;;;;;60.08;25.88;;;7.60;99.90;;;;;;4965193;28;20065;-70
2022/11/09 07:19:08;;;;;;;86.97;33.30;;;7.70;99.90;;;;;;4984229;28;20782;-73
2022/11/09 07:21:37;;;;;;;104.07;29.88;;;7.60;99.90;;;;;;4961436;28;20035;-74
2022/11/09 07:24:03;;;;;;;111.90;31.05;;;7.70;99.90;;;;;;4958999;28;20087;-74
2022/11/09 07:26:31;;;;;;;108.65;29.42;;;7.50;99.90;;;;;;4959760;28;20206;-75
2022/11/09 07:28:58;;;;;;;114.10;28.38;;;7.30;99.90;;;;;;4960817;28;20125;-68
2022/11/09 07:31:28;;;;;;;64.82;22.30;;;7.30;99.90;;;;;;4951395;28;20031;-71
2022/11/09 07:33:57;;;;;;;36.38;22.50;;;7.40;99.90;;;;;;4960942;28;20063;-69
2022/11/09 07:36:39;;;;;;;57.05;24.83;;;7.50;99.90;;;;;;4969112;28;20059;-72
2022/11/09 07:39:05;;;;;;;69.10;26.15;;;7.70;99.90;;;;;;4968821;28;20047;-69
2022/11/09 07:41:32;;;;;;;61.50;25.65;;;7.70;99.90;;;;;;4971479;28;20099;-73
2022/11/09 07:43:59;;;;;;;46.15;27.13;;;7.60;99.90;;;;;;4960559;28;20047;-70
2022/11/09 07:46:25;;;;;;;85.75;27.30;;;7.60;99.90;;;;;;4948382;29;20035;-73
2022/11/09 07:48:52;;;;;;;37.15;21.67;;;7.60;99.90;;;;;;4985836;28;20071;-70
2022/11/09 07:51:18;;;;;;;62.13;22.30;;;7.80;99.90;;;;;;4960808;28;20046;-69
2022/11/09 07:53:44;;;;;;;38.80;23.05;;;8.00;99.90;;;;;;4953715;28;20039;-69
2022/11/09 07:56:10;;;;;;;158.77;37.85;;;8.10;99.90;;;;;;4953818;28;20035;-72
2022/11/09 07:58:36;;;;;;;53.22;23.10;;;8.20;99.90;;;;;;4960253;28;20499;-75
2022/11/09 08:01:07;;;;;;;53.13;23.60;;;8.30;99.90;;;;;;4969599;28;20039;-69
2022/11/09 08:03:33;;;;;;;166.50;35.33;;;8.40;99.90;;;;;;4961361;28;20042;-70
2022/11/09 08:06:00;;;;;;;51.10;23.13;;;8.10;99.90;;;;;;4959616;28;20468;-69
2022/11/09 08:08:26;;;;;;;45.63;20.25;;;8.20;99.90;;;;;;4966152;28;20050;-70
2022/11/09 08:10:52;;;;;;;71.07;22.45;;;8.40;99.90;;;;;;4952878;28;20381;-70
2022/11/09 08:13:19;;;;;;;83.43;22.67;;;8.50;99.90;;;;;;4968063;28;20523;-73
2022/11/09 08:15:45;;;;;;;131.90;26.63;;;8.50;99.90;;;;;;4953170;28;20122;-74
2022/11/09 08:18:13;;;;;;;73.25;19.45;;;8.40;99.90;;;;;;4958714;28;20127;-75
2022/11/09 08:20:39;;;;;;;126.28;22.02;;;8.10;99.90;;;;;;4956719;28;20483;-69
2022/11/09 08:23:05;;;;;;;96.35;18.98;;;8.00;99.90;;;;;;4967564;28;20159;-69
2022/11/09 08:25:33;;;;;;;87.63;20.67;;;8.10;99.90;;;;;;4966255;28;20126;-73
2022/11/09 08:27:59;;;;;;;50.95;16.50;;;8.10;99.90;;;;;;4965121;28;20118;-71
2022/11/09 08:30:25;;;;;;;35.45;17.75;;;8.30;99.90;;;;;;4945777;28;20154;-71
2022/11/09 08:32:51;;;;;;;61.70;21.25;;;8.70;99.90;;;;;;4957250;28;20069;-71
2022/11/09 08:35:21;;;;;;;41.97;19.60;;;8.90;99.90;;;;;;4971560;28;20062;-72
2022/11/09 08:37:49;;;;;;;77.93;20.48;;;9.00;99.90;;;;;;4956943;28;20042;-71
2022/11/09 08:40:17;;;;;;;61.63;20.95;;;9.00;99.90;;;;;;4951970;28;20035;-71
2022/11/09 08:42:43;;;;;;;35.40;18.48;;;9.10;99.90;;;;;;4952913;28;20067;-70
2022/11/09 08:45:10;;;;;;;41.70;17.45;;;9.40;99.90;;;;;;4957232;28;20062;-74
2022/11/09 08:47:36;;;;;;;30.33;17.70;;;9.50;99.90;;;;;;4954687;28;20110;-70
2022/11/09 08:50:05;;;;;;;34.05;17.77;;;9.70;99.90;;;;;;4958520;28;20047;-70
2022/11/09 08:52:32;;;;;;;47.15;17.05;;;9.80;99.90;;;;;;4959589;28;20046;-75
2022/11/09 08:54:58;;;;;;;30.58;19.65;;;9.60;99.90;;;;;;4952034;28;20031;-71
2022/11/09 08:57:24;;;;;;;38.95;17.90;;;9.60;99.90;;;;;;4949816;28;20113;-73
2022/11/09 08:59:50;;;;;;;39.67;18.80;;;9.70;99.90;;;;;;4965897;28;21557;-74
2022/11/09 09:02:16;;;;;;;28.83;17.92;;;9.90;99.90;;;;;;4940980;29;20212;-70
2022/11/09 09:04:42;;;;;;;36.38;18.42;;;10.10;99.90;;;;;;4951993;28;20058;-72
2022/11/09 09:07:09;;;;;;;32.50;18.83;;;10.20;99.90;;;;;;4966839;28;20108;-71
2022/11/09 09:09:37;;;;;;;43.70;20.52;;;10.10;99.90;;;;;;4957939;28;20058;-71
2022/11/09 09:12:04;;;;;;;29.38;18.55;;;9.90;99.90;;;;;;4958634;28;20078;-70
2022/11/09 09:14:30;;;;;;;34.53;19.15;;;10.20;99.90;;;;;;4958888;28;20042;-71
2022/11/09 09:16:56;;;;;;;32.63;18.40;;;10.40;99.90;;;;;;4952127;28;20036;-71
2022/11/09 09:19:22;;;;;;;34.15;19.90;;;10.50;99.90;;;;;;4965510;28;20408;-72
2022/11/09 09:21:51;;;;;;;41.78;23.05;;;10.70;99.90;;;;;;4948879;28;20039;-70
2022/11/09 09:24:17;;;;;;;35.00;21.83;;;10.80;99.90;;;;;;4974881;28;20034;-71
2022/11/09 09:26:44;;;;;;;29.70;18.08;;;10.80;99.90;;;;;;4961095;28;20118;-71
2022/11/09 09:29:12;;;;;;;33.03;18.15;;;10.80;99.90;;;;;;4958416;28;20074;-71
2022/11/09 09:31:38;;;;;;;30.77;17.88;;;10.70;99.90;;;;;;4958667;28;20545;-76
2022/11/09 09:34:05;;;;;;;38.45;21.20;;;10.80;99.90;;;;;;4951635;28;20070;-72
2022/11/09 09:36:35;;;;;;;49.55;19.95;;;10.60;99.90;;;;;;4929392;29;20102;-71
2022/11/09 09:39:01;;;;;;;40.30;21.08;;;10.10;99.90;;;;;;4957188;28;20425;-71
2022/11/09 09:41:41;;;;;;;34.70;20.50;;;10.20;99.90;;;;;;4929403;29;20083;-72
2022/11/09 09:44:25;;;;;;;40.53;21.65;;;10.60;99.90;;;;;;4955953;28;20031;-73
2022/11/09 09:47:13;;;;;;;33.55;20.25;;;10.10;99.90;;;;;;4956320;28;20489;-72
2022/11/09 09:49:55;;;;;;;57.53;21.23;;;10.40;99.90;;;;;;4956217;28;20051;-73
2022/11/09 09:52:41;;;;;;;37.55;20.92;;;10.00;99.90;;;;;;4956418;28;20048;-72
2022/11/09 09:55:12;;;;;;;48.40;22.20;;;10.10;99.90;;;;;;4955872;28;20047;-72
2022/11/09 09:57:41;;;;;;;36.22;20.77;;;10.40;99.90;;;;;;4955525;28;20043;-71
2022/11/09 10:00:14;;;;;;;36.40;22.67;;;10.50;99.90;;;;;;4955199;28;20039;-73
2022/11/09 10:02:40;;;;;;;34.78;21.80;;;10.70;99.90;;;;;;4958860;28;20106;-72
2022/11/09 10:05:10;;;;;;;34.13;23.02;;;10.90;99.90;;;;;;4955563;28;20028;-71
2022/11/09 10:08:04;;;;;;;36.13;22.35;;;10.80;99.90;;;;;;4966729;28;20122;-72
2022/11/09 10:11:12;;;;;;;37.15;22.65;;;11.20;99.90;;;;;;4955136;28;20163;-71
2022/11/09 10:14:02;;;;;;;35.85;22.60;;;11.60;99.90;;;;;;4932513;29;20047;-76
2022/11/09 10:16:56;;;;;;;32.05;21.35;;;11.80;99.90;;;;;;4933865;29;20526;-72
2022/11/09 10:19:43;;;;;;;36.88;22.73;;;12.10;99.90;;;;;;4933438;29;20486;-72
2022/11/09 10:22:31;;;;;;;35.72;22.15;;;12.40;99.90;;;;;;4932675;29;20580;-70
2022/11/09 10:25:05;;;;;;;35.38;22.05;;;12.30;99.90;;;;;;4933786;29;20047;-72
2022/11/09 10:27:36;;;;;;;39.70;24.40;;;12.20;99.90;;;;;;4933758;29;20059;-74
2022/11/09 10:30:15;;;;;;;34.90;22.80;;;12.10;99.90;;;;;;4932178;29;20576;-75
2022/11/09 10:32:44;;;;;;;33.72;22.85;;;12.00;99.90;;;;;;4933809;29;20493;-72
2022/11/09 10:35:19;;;;;;;34.03;21.92;;;12.10;99.90;;;;;;4933532;29;20064;-72
2022/11/09 10:37:48;;;;;;;30.35;20.92;;;12.20;99.90;;;;;;4917743;29;20063;-71
2022/11/09 10:40:18;;;;;;;30.40;20.08;;;12.20;99.90;;;;;;4901698;29;20047;-72
2022/11/09 10:43:09;;;;;;;36.05;22.50;;;12.30;99.90;;;;;;4919985;29;20047;-72
2022/11/09 10:45:59;;;;;;;29.30;19.65;;;12.30;99.90;;;;;;4933255;29;20103;-71
2022/11/09 10:48:44;;;;;;;35.53;23.08;;;12.60;99.90;;;;;;4932064;28;20067;-71
2022/11/09 10:51:39;;;;;;;29.52;21.08;;;12.60;99.90;;;;;;4947875;28;20042;-73
2022/11/09 10:54:36;;;;;;;29.77;20.77;;;12.70;99.90;;;;;;4955097;28;20122;-72
2022/11/09 10:57:23;;;;;;;34.92;22.42;;;13.00;99.90;;;;;;4954958;28;20045;-73
2022/11/09 11:00:19;;;;;;;34.00;22.63;;;12.90;99.90;;;;;;4954855;28;20039;-73
2022/11/09 11:03:16;;;;;;;30.70;21.88;;;13.00;99.90;;;;;;4957102;28;20146;-72
2022/11/09 11:06:04;;;;;;;35.90;24.83;;;13.00;99.90;;;;;;4955805;28;20504;-72
2022/11/09 11:08:56;;;;;;;33.58;23.67;;;13.10;99.90;;;;;;4961063;28;20133;-72
2022/11/09 11:11:40;;;;;;;36.60;23.92;;;13.20;99.90;;;;;;4957504;28;20094;-72
2022/11/09 11:14:33;;;;;;;35.75;22.63;;;13.20;99.90;;;;;;4939933;29;20556;-73
2022/11/09 11:17:26;;;;;;;33.78;22.95;;;13.40;99.90;;;;;;4961677;28;20150;-74
2022/11/09 11:20:28;;;;;;;34.47;22.73;;;13.50;99.90;;;;;;4957413;28;20098;-73
2022/11/09 11:23:15;;;;;;;31.60;21.60;;;13.50;99.90;;;;;;4954441;28;20066;-74
2022/11/09 11:26:18;;;;;;;32.80;22.20;;;13.50;99.90;;;;;;4954136;28;20572;-74
2022/11/09 11:29:36;;;;;;;35.47;20.75;;;13.50;99.90;;;;;;4953617;28;20540;-73
2022/11/09 11:32:23;;;;;;;35.45;22.40;;;13.50;99.90;;;;;;4955579;28;20042;-71
2022/11/09 11:35:17;;;;;;;33.70;21.33;;;13.60;99.90;;;;;;4965398;28;20069;-71
2022/11/09 11:38:09;;;;;;;32.22;22.55;;;13.60;99.90;;;;;;4963962;28;20042;-76
2022/11/09 11:41:08;;;;;;;31.33;20.02;;;13.80;99.90;;;;;;4962078;28;20061;-74
2022/11/09 11:44:16;;;;;;;28.48;20.13;;;13.80;99.90;;;;;;4982542;28;20504;-71
2022/11/09 11:47:37;;;;;;;25.70;17.60;;;13.70;99.90;;;;;;4966279;28;20045;-71
2022/11/09 11:50:38;;;;;;;30.23;18.13;;;13.90;99.90;;;;;;4971814;28;20078;-71
2022/11/09 11:53:44;;;;;;;29.30;19.30;;;13.90;99.90;;;;;;4977940;28;20045;-74
2022/11/09 11:56:37;;;;;;;28.90;19.60;;;14.10;99.90;;;;;;4975430;28;20057;-73
2022/11/09 11:59:27;;;;;;;32.50;19.75;;;13.90;99.90;;;;;;4969764;28;20113;-72
2022/11/09 12:02:30;;;;;;;28.52;18.98;;;14.00;99.90;;;;;;4966189;28;20087;-73
2022/11/09 12:05:30;;;;;;;30.23;18.63;;;14.00;99.90;;;;;;4956773;28;20053;-71
2022/11/09 12:08:39;;;;;;;29.85;19.83;;;14.20;99.90;;;;;;4973243;28;20049;-76
2022/11/09 12:11:43;;;;;;;29.13;19.13;;;14.30;99.90;;;;;;4959078;28;20071;-71
2022/11/09 12:14:44;;;;;;;30.63;19.30;;;14.30;99.90;;;;;;4969231;28;20145;-70
2022/11/09 12:17:46;;;;;;;26.85;18.50;;;14.50;99.90;;;;;;4953669;28;20074;-76
2022/11/09 12:21:05;;;;;;;31.42;19.70;;;14.60;99.90;;;;;;4972251;28;20304;-72
2022/11/09 12:24:09;;;;;;;29.50;20.13;;;14.50;99.90;;;;;;4960431;28;20128;-71
2022/11/09 12:27:13;;;;;;;30.02;20.17;;;14.60;99.90;;;;;;4953708;28;20074;-71
2022/11/09 12:30:18;;;;;;;30.77;19.70;;;14.70;99.90;;;;;;4956784;28;20054;-71
2022/11/09 12:33:20;;;;;;;34.13;21.55;;;14.70;99.90;;;;;;4981615;28;20087;-74
2022/11/09 12:36:17;;;;;;;32.10;20.45;;;14.80;99.90;;;;;;4983068;28;20046;-72
2022/11/09 12:39:25;;;;;;;28.17;18.90;;;14.80;99.90;;;;;;4953011;28;20071;-73
2022/11/09 12:42:19;;;;;;;28.23;18.95;;;14.90;99.90;;;;;;4967322;28;20127;-71
2022/11/09 12:45:06;;;;;;;27.10;16.45;;;15.00;99.90;;;;;;4952784;28;20050;-74
2022/11/09 12:47:53;;;;;;;25.80;17.55;;;15.00;99.90;;;;;;4968142;28;20050;-71
2022/11/09 12:50:38;;;;;;;30.30;19.35;;;15.00;99.90;;;;;;4953024;28;20054;-72
2022/11/09 12:53:26;;;;;;;28.45;19.33;;;15.00;99.90;;;;;;4963464;28;20110;-73
2022/11/09 12:56:54;;;;;;;32.70;23.15;;;15.00;99.90;;;;;;4967766;28;20093;-70
2022/11/09 12:59:50;;;;;;;29.83;20.85;;;15.00;99.90;;;;;;4918104;29;20621;-70
2022/11/09 13:02:41;;;;;;;25.50;17.73;;;15.00;99.90;;;;;;4907526;29;20139;-72
2022/11/09 13:05:33;;;;;;;29.98;18.92;;;15.00;99.90;;;;;;4907997;29;20058;-75
2022/11/09 13:08:36;;;;;;;26.75;18.80;;;15.10;99.90;;;;;;4911600;29;20221;-75